AIRPORT ID: KANP

DATE: 2024-07-20 ZULU TIME: 15.55 LOCAL TIME: 11.55


METAR KANP 201555Z AUTO 19007KT 10SM 28/22 A3009

ALTIMETER: A3009 Q1019

DENSITY ALT: 1300 Ft

WIND DIRECT: 180

WIND SPEED: 7 Gust

WIND CONDITIONS:

VISIBILTY: 10SM 9999M

TEMPERATURE: 82 F 28 C

DEW POINT: 72 F 22 C

HUMID: 72%

LCL: 3,000-5,000 feet

RADIO CHECK: 1

ADVISARIES: 4

GREETINGS: 0

CONVERSATIONS: 46